createdAt,value
2017-11-04T00:01:21.743Z,23.57
2017-11-04T00:03:49.275Z,26.60
2017-11-04T00:06:17.607Z,26.00
2017-11-04T00:08:45.138Z,26.47
2017-11-04T00:11:12.694Z,26.60
2017-11-04T00:13:40.223Z,25.90
2017-11-04T00:16:08.546Z,26.10
2017-11-04T00:18:36.091Z,25.77
2017-11-04T00:21:03.647Z,24.93
2017-11-04T00:23:31.178Z,26.30
2017-11-04T00:25:59.515Z,24.77
2017-11-04T00:28:27.043Z,28.23
2017-11-04T00:30:54.601Z,26.00
2017-11-04T00:33:22.136Z,26.00
2017-11-04T00:35:50.461Z,27.37
2017-11-04T00:38:17.999Z,29.50
2017-11-04T00:40:45.555Z,27.43
2017-11-04T00:43:13.095Z,28.77
2017-11-04T00:45:41.431Z,27.30
2017-11-04T00:48:08.959Z,26.30
2017-11-04T00:50:36.517Z,28.53
2017-11-04T00:53:04.069Z,24.70
2017-11-04T00:55:31.630Z,25.57
2017-11-04T00:57:59.162Z,26.23
2017-11-04T01:00:26.723Z,28.40
2017-11-04T01:02:54.251Z,26.30
2017-11-04T01:05:21.812Z,29.37
2017-11-04T01:07:49.345Z,31.47
2017-11-04T01:10:16.915Z,28.40
2017-11-04T01:12:44.456Z,29.60
2017-11-04T01:15:11.982Z,29.63
2017-11-04T01:17:39.550Z,27.00
2017-11-04T01:20:07.850Z,29.80
2017-11-04T01:22:35.410Z,30.77
2017-11-04T01:25:02.951Z,30.70
2017-11-04T01:27:30.525Z,30.07
2017-11-04T01:29:58.071Z,28.90
2017-11-04T01:32:26.402Z,28.00
2017-11-04T01:34:53.935Z,28.07
2017-11-04T01:37:21.487Z,30.37
2017-11-04T01:39:49.027Z,31.27
2017-11-04T01:42:17.347Z,29.93
2017-11-04T01:44:44.881Z,30.77
2017-11-04T01:47:12.435Z,30.00
2017-11-04T01:49:39.971Z,29.13
2017-11-04T01:52:07.531Z,28.40
2017-11-04T01:54:35.073Z,28.30
2017-11-04T01:57:02.636Z,28.70
2017-11-04T01:59:30.175Z,29.10
2017-11-04T02:01:57.735Z,30.73
2017-11-04T02:04:25.270Z,29.37
2017-11-04T02:06:52.842Z,30.93
2017-11-04T02:09:20.388Z,29.57
2017-11-04T02:11:47.944Z,31.10
2017-11-04T02:14:15.475Z,29.03
2017-11-04T02:16:43.799Z,31.50
2017-11-04T02:19:11.332Z,30.87
2017-11-04T02:21:38.889Z,32.30
2017-11-04T02:24:07.193Z,32.70
2017-11-04T02:26:34.747Z,30.70
2017-11-04T02:29:02.278Z,32.53
2017-11-04T02:31:30.608Z,32.30
2017-11-04T02:33:58.148Z,31.70
2017-11-04T02:36:25.695Z,32.43
2017-11-04T02:38:53.227Z,33.03
2017-11-04T02:41:21.552Z,31.77
2017-11-04T02:43:49.082Z,32.90
2017-11-04T02:46:16.631Z,32.13
2017-11-04T02:48:53.080Z,30.37
2017-11-04T02:51:20.644Z,29.80
2017-11-04T02:53:48.173Z,33.23
2017-11-04T02:56:15.739Z,31.03
2017-11-04T02:58:43.275Z,30.13
2017-11-04T03:01:10.847Z,30.83
2017-11-04T03:03:38.387Z,30.33
2017-11-04T03:06:05.968Z,32.63
2017-11-04T03:08:33.499Z,30.03
2017-11-04T03:11:01.051Z,31.67
2017-11-04T03:13:28.584Z,29.93
2017-11-04T03:15:56.904Z,32.17
2017-11-04T03:18:24.438Z,29.73
2017-11-04T03:20:52.736Z,28.80
2017-11-04T03:23:20.286Z,30.23
2017-11-04T03:25:47.828Z,29.93
2017-11-04T03:28:16.155Z,29.83
2017-11-04T03:30:43.687Z,29.93
2017-11-04T03:33:11.334Z,30.93
2017-11-04T03:35:38.872Z,32.30
2017-11-04T03:38:06.434Z,31.37
2017-11-04T03:40:34.739Z,32.70
2017-11-04T03:43:02.295Z,31.20
2017-11-04T03:45:29.821Z,30.40
2017-11-04T03:47:57.700Z,29.97
2017-11-04T03:50:25.999Z,29.43
2017-11-04T03:52:53.564Z,30.07
2017-11-04T03:55:21.095Z,31.00
2017-11-04T03:57:50.215Z,30.37
2017-11-04T04:00:17.742Z,28.47
2017-11-04T04:02:45.300Z,28.87
2017-11-04T04:05:12.824Z,29.53
2017-11-04T04:07:40.383Z,30.27
2017-11-04T04:10:07.920Z,28.33
2017-11-04T04:12:35.483Z,31.60
2017-11-04T04:15:03.015Z,30.33
2017-11-04T04:17:31.334Z,28.27
2017-11-04T04:19:58.866Z,29.47
2017-11-04T04:22:26.419Z,29.07
2017-11-04T04:24:54.716Z,28.10
2017-11-04T04:27:22.271Z,29.77
2017-11-04T04:29:49.799Z,28.83
2017-11-04T04:32:17.359Z,30.27
2017-11-04T04:34:44.896Z,28.80
2017-11-04T04:37:12.463Z,28.30
2017-11-04T04:39:39.996Z,31.17
2017-11-04T04:42:07.563Z,30.33
2017-11-04T04:44:35.100Z,32.30
2017-11-04T04:47:02.652Z,31.20
2017-11-04T04:49:30.185Z,28.67
2017-11-04T04:51:58.508Z,28.13
2017-11-04T04:54:26.046Z,31.13
2017-11-04T04:56:53.594Z,27.23
2017-11-04T04:59:21.887Z,30.10
2017-11-04T05:01:49.460Z,29.17
2017-11-04T05:04:16.999Z,29.00
2017-11-04T05:06:44.555Z,28.23
2017-11-04T05:09:12.098Z,30.67
2017-11-04T05:11:40.414Z,28.83
2017-11-04T05:14:07.947Z,27.50
2017-11-04T05:16:36.272Z,27.90
2017-11-04T05:19:03.799Z,29.13
2017-11-04T05:21:31.358Z,30.03
2017-11-04T05:23:58.890Z,31.20
2017-11-04T05:26:27.193Z,30.53
2017-11-04T05:28:54.743Z,31.97
2017-11-04T05:31:22.281Z,29.30
2017-11-04T05:33:50.607Z,29.13
2017-11-04T05:36:18.137Z,27.77
2017-11-04T05:38:45.687Z,28.67
2017-11-04T05:41:13.990Z,26.87
2017-11-04T05:43:41.551Z,27.80
2017-11-04T05:46:09.079Z,27.60
2017-11-04T05:48:37.398Z,28.07
2017-11-04T05:51:04.938Z,26.43
2017-11-04T05:53:32.491Z,27.07
2017-11-04T05:56:00.035Z,27.50
2017-11-04T05:58:28.365Z,24.87
2017-11-04T06:00:56.670Z,27.83
2017-11-04T06:03:24.230Z,27.00
2017-11-04T06:05:51.759Z,28.90
2017-11-04T06:08:19.315Z,28.63
2017-11-04T06:10:46.847Z,30.60
2017-11-04T06:13:14.409Z,28.63
2017-11-04T06:15:41.939Z,29.20
2017-11-04T06:18:09.495Z,31.07
2017-11-04T06:20:37.022Z,27.57
2017-11-04T06:23:04.583Z,30.20
2017-11-04T06:25:32.119Z,27.03
2017-11-04T06:27:59.673Z,30.27
2017-11-04T06:30:27.210Z,29.37
2017-11-04T06:32:55.548Z,31.07
2017-11-04T06:35:23.084Z,29.77
2017-11-04T06:37:50.659Z,27.57
2017-11-04T06:40:18.192Z,31.27
2017-11-04T06:42:45.747Z,31.80
2017-11-04T06:45:13.289Z,29.87
2017-11-04T06:47:41.614Z,31.20
2017-11-04T06:50:09.144Z,30.97
2017-11-04T06:52:36.707Z,26.10
2017-11-04T06:55:04.234Z,28.63
2017-11-04T06:57:32.569Z,29.23
2017-11-04T07:00:00.109Z,28.27
2017-11-04T07:02:27.662Z,29.07
2017-11-04T07:04:55.192Z,29.07
2017-11-04T07:07:23.524Z,29.27
2017-11-04T07:09:51.050Z,29.90
2017-11-04T07:12:18.606Z,26.87
2017-11-04T07:14:46.153Z,28.83
2017-11-04T07:17:14.471Z,29.50
2017-11-04T07:19:42.011Z,31.00
2017-11-04T07:22:09.563Z,30.70
2017-11-04T07:24:37.098Z,29.87
2017-11-04T07:27:04.660Z,32.87
2017-11-04T07:29:32.967Z,29.80
2017-11-04T07:32:00.530Z,29.10
2017-11-04T07:34:28.058Z,31.43
2017-11-04T07:36:56.364Z,28.40
2017-11-04T07:39:23.920Z,30.10
2017-11-04T07:41:51.451Z,30.20
2017-11-04T07:44:19.011Z,26.43
2017-11-04T07:46:46.544Z,27.60
2017-11-04T07:49:14.102Z,27.80
2017-11-04T07:51:42.402Z,27.17
2017-11-04T07:54:09.968Z,25.97
2017-11-04T07:56:37.493Z,25.67
2017-11-04T07:59:05.040Z,28.83
2017-11-04T08:01:32.574Z,25.80
2017-11-04T08:04:00.140Z,25.87
2017-11-04T08:06:27.691Z,24.13
2017-11-04T08:08:55.296Z,30.30
2017-11-04T08:11:22.841Z,29.43
2017-11-04T08:13:50.398Z,29.60
2017-11-04T08:16:17.939Z,26.83
2017-11-04T08:18:45.504Z,29.20
2017-11-04T08:21:13.043Z,32.00
2017-11-04T08:23:40.607Z,32.73
2017-11-04T08:26:08.913Z,31.17
2017-11-04T08:28:36.472Z,30.17
2017-11-04T08:31:04.012Z,29.33
2017-11-04T08:33:31.569Z,30.30
2017-11-04T08:35:59.106Z,29.10
2017-11-04T08:38:27.442Z,27.87
2017-11-04T08:40:54.975Z,29.10
2017-11-04T08:43:22.544Z,26.23
2017-11-04T08:45:50.079Z,30.73
2017-11-04T08:48:18.409Z,30.27
2017-11-04T08:50:45.950Z,27.80
2017-11-04T08:53:13.514Z,30.40
2017-11-04T08:55:41.051Z,29.83
2017-11-04T08:58:08.582Z,28.20
2017-11-04T09:00:36.908Z,27.97
2017-11-04T09:03:06.299Z,28.70
2017-11-04T09:05:33.859Z,30.33
2017-11-04T09:08:01.406Z,28.43
2017-11-04T09:10:28.963Z,27.17
2017-11-04T09:12:56.490Z,28.73
2017-11-04T09:15:24.050Z,26.03
2017-11-04T09:17:52.419Z,24.97
2017-11-04T09:20:19.998Z,27.60
2017-11-04T09:22:48.307Z,25.13
2017-11-04T09:25:15.862Z,26.83
2017-11-04T09:27:43.403Z,26.13
2017-11-04T09:30:11.731Z,22.83
2017-11-04T09:32:39.259Z,24.10
2017-11-04T09:35:06.815Z,21.77
2017-11-04T09:37:34.503Z,23.77
2017-11-04T09:40:02.078Z,22.63
2017-11-04T09:42:29.618Z,23.57
2017-11-04T09:44:57.170Z,23.27
2017-11-04T09:47:24.708Z,24.13
2017-11-04T09:49:53.007Z,23.83
2017-11-04T09:52:20.582Z,24.60
2017-11-04T09:54:48.114Z,22.77
2017-11-04T09:57:15.771Z,22.83
2017-11-04T09:59:43.311Z,24.40
2017-11-04T10:02:11.640Z,24.33
2017-11-04T10:04:39.384Z,24.10
2017-11-04T10:07:06.943Z,26.93
2017-11-04T10:09:34.482Z,42.83
2017-11-04T10:12:02.811Z,27.27
2017-11-04T10:14:30.339Z,22.40
2017-11-04T10:16:57.895Z,22.27
2017-11-04T10:19:25.422Z,20.87
2017-11-04T10:21:52.988Z,21.50
2017-11-04T10:24:21.292Z,20.40
2017-11-04T10:26:48.850Z,19.87
2017-11-04T10:29:16.382Z,20.43
2017-11-04T10:31:43.939Z,18.47
2017-11-04T10:34:11.467Z,19.77
2017-11-04T10:36:39.026Z,17.70
2017-11-04T10:39:06.554Z,20.80
2017-11-04T10:41:34.112Z,19.53
2017-11-04T10:44:01.639Z,18.47
2017-11-04T10:46:29.166Z,17.67
2017-11-04T10:48:56.722Z,17.93
2017-11-04T10:51:24.248Z,18.63
2017-11-04T10:53:51.803Z,19.77
2017-11-04T10:56:19.336Z,18.23
2017-11-04T10:58:46.896Z,19.27
2017-11-04T11:01:14.427Z,18.47
2017-11-04T11:03:41.980Z,17.67
2017-11-04T11:06:09.520Z,16.23
2017-11-04T11:08:37.066Z,15.20
2017-11-04T11:11:04.606Z,16.47
2017-11-04T11:13:32.930Z,15.57
2017-11-04T11:16:00.454Z,15.57
2017-11-04T11:18:28.014Z,15.40
2017-11-04T11:20:55.547Z,15.13
2017-11-04T11:23:23.153Z,15.47
2017-11-04T11:25:50.683Z,14.97
2017-11-04T11:28:19.014Z,14.67
2017-11-04T11:30:46.544Z,15.47
2017-11-04T11:33:14.194Z,14.00
2017-11-04T11:35:41.747Z,13.73
2017-11-04T11:38:10.067Z,13.83
2017-11-04T11:40:37.599Z,13.40
2017-11-04T11:43:05.150Z,13.70
2017-11-04T11:45:32.684Z,13.10
2017-11-04T11:48:00.249Z,11.63
2017-11-04T11:50:28.566Z,13.87
2017-11-04T11:52:56.095Z,13.00
2017-11-04T11:55:24.558Z,12.87
2017-11-04T11:57:52.094Z,13.13
2017-11-04T12:00:19.647Z,11.73
2017-11-04T12:02:47.179Z,13.40
2017-11-04T12:05:14.740Z,12.03
2017-11-04T12:07:42.267Z,12.90
2017-11-04T12:10:12.036Z,12.90
2017-11-04T12:12:39.590Z,11.20
2017-11-04T12:15:07.150Z,11.30
2017-11-04T12:17:34.683Z,10.57
2017-11-04T12:20:02.234Z,10.10
2017-11-04T12:22:30.522Z,10.10
2017-11-04T12:24:58.075Z,10.57
2017-11-04T12:27:25.606Z,10.23
2017-11-04T12:29:53.151Z,9.83
2017-11-04T12:32:20.680Z,9.97
2017-11-04T12:34:48.245Z,10.77
2017-11-04T12:37:15.780Z,9.30
2017-11-04T12:39:43.337Z,8.67
2017-11-04T12:42:10.869Z,9.70
2017-11-04T12:44:39.191Z,9.70
2017-11-04T12:47:08.663Z,9.40
2017-11-04T12:49:36.988Z,9.10
2017-11-04T12:52:04.512Z,8.93
2017-11-04T12:54:32.072Z,8.90
2017-11-04T12:56:59.607Z,9.87
2017-11-04T12:59:27.931Z,9.03
2017-11-04T13:01:55.462Z,9.17
2017-11-04T13:04:23.784Z,9.60
2017-11-04T13:06:51.307Z,8.30
2017-11-04T13:09:18.863Z,9.90
2017-11-04T13:11:46.410Z,9.63
2017-11-04T13:14:14.736Z,8.33
2017-11-04T13:16:42.263Z,8.60
2017-11-04T13:19:10.411Z,8.30
2017-11-04T13:21:38.709Z,7.87
2017-11-04T13:24:06.278Z,8.90
2017-11-04T13:26:34.188Z,9.33
2017-11-04T13:29:01.746Z,9.50
2017-11-04T13:31:30.262Z,8.30
2017-11-04T13:33:58.583Z,8.23
2017-11-04T13:36:26.134Z,9.00
2017-11-04T13:38:53.686Z,8.07
2017-11-04T13:41:21.215Z,8.73
2017-11-04T13:43:49.535Z,9.20
2017-11-04T13:46:17.066Z,9.20
2017-11-04T13:48:45.389Z,9.00
2017-11-04T13:51:12.917Z,7.40
2017-11-04T13:53:40.466Z,7.40
2017-11-04T13:56:08.004Z,9.90
2017-11-04T13:58:35.558Z,8.90
2017-11-04T14:01:03.115Z,9.40
2017-11-04T14:03:30.648Z,10.10
2017-11-04T14:05:58.208Z,9.17
2017-11-04T14:08:25.737Z,9.60
2017-11-04T14:10:53.293Z,9.30
2017-11-04T14:13:20.824Z,9.80
2017-11-04T14:15:49.154Z,10.27
2017-11-04T14:18:16.684Z,9.20
2017-11-04T14:20:44.266Z,11.00
2017-11-04T14:23:11.795Z,9.87
2017-11-04T14:25:40.120Z,8.87
2017-11-04T14:28:07.637Z,9.33
2017-11-04T14:30:35.953Z,9.60
2017-11-04T14:33:03.488Z,13.30
2017-11-04T14:35:31.043Z,11.77
2017-11-04T14:37:58.571Z,10.37
2017-11-04T14:40:26.902Z,10.90
2017-11-04T14:42:54.431Z,9.83
2017-11-04T14:45:22.752Z,12.87
2017-11-04T14:47:50.283Z,12.60
2017-11-04T14:50:17.856Z,10.03
2017-11-04T14:52:45.391Z,11.30
2017-11-04T14:55:12.947Z,10.80
2017-11-04T14:57:41.249Z,11.00
2017-11-04T15:00:08.809Z,10.47
2017-11-04T15:02:36.345Z,10.60
2017-11-04T15:05:03.902Z,10.00
2017-11-04T15:07:32.208Z,11.03
2017-11-04T15:09:59.767Z,10.63
2017-11-04T15:12:27.300Z,10.17
2017-11-04T15:14:55.622Z,10.50
2017-11-04T15:17:23.162Z,9.30
2017-11-04T15:19:50.730Z,10.53
2017-11-04T15:22:18.258Z,9.70
2017-11-04T15:24:45.815Z,9.60
2017-11-04T15:27:13.355Z,9.00
2017-11-04T15:29:41.679Z,9.20
2017-11-04T15:32:09.224Z,10.90
2017-11-04T15:34:36.774Z,9.50
2017-11-04T15:37:04.310Z,8.70
2017-11-04T15:39:31.868Z,8.57
2017-11-04T15:41:59.403Z,9.40
2017-11-04T15:44:26.957Z,9.20
2017-11-04T15:46:54.495Z,9.20
2017-11-04T15:49:22.053Z,8.90
2017-11-04T15:51:49.938Z,9.53
2017-11-04T15:54:18.300Z,9.67
2017-11-04T15:56:45.832Z,11.00
2017-11-04T15:59:14.714Z,10.10
2017-11-04T16:01:42.443Z,10.93
2017-11-04T16:04:09.996Z,13.97
2017-11-04T16:06:37.802Z,17.37
2017-11-04T16:09:06.145Z,11.87
2017-11-04T16:11:33.759Z,11.70
2017-11-04T16:14:01.286Z,9.30
2017-11-04T16:16:28.847Z,9.60
2017-11-04T16:18:56.375Z,10.63
2017-11-04T16:21:23.930Z,10.67
2017-11-04T16:23:51.466Z,9.70
2017-11-04T16:26:19.058Z,9.07
2017-11-04T16:28:46.773Z,9.90
2017-11-04T16:31:14.363Z,10.40
2017-11-04T16:33:41.891Z,10.57
2017-11-04T16:36:09.528Z,10.30
2017-11-04T16:38:37.059Z,11.57
2017-11-04T16:41:04.606Z,10.90
2017-11-04T16:43:32.135Z,11.10
2017-11-04T16:46:00.456Z,11.50
2017-11-04T16:48:28.760Z,10.80
2017-11-04T16:50:56.318Z,11.50
2017-11-04T16:53:23.850Z,10.47
2017-11-04T16:55:51.410Z,10.10
2017-11-04T16:58:18.945Z,11.00
2017-11-04T17:00:46.515Z,10.50
2017-11-04T17:03:14.083Z,11.47
2017-11-04T17:05:41.639Z,10.90
2017-11-04T17:08:09.175Z,11.20
2017-11-04T17:10:36.730Z,10.83
2017-11-04T17:13:04.268Z,12.87
2017-11-04T17:15:31.824Z,12.20
2017-11-04T17:17:59.354Z,11.57
2017-11-04T17:20:26.916Z,11.77
2017-11-04T17:22:54.452Z,13.07
2017-11-04T17:25:22.008Z,13.97
2017-11-04T17:27:49.546Z,14.50
2017-11-04T17:30:17.864Z,11.87
2017-11-04T17:32:45.404Z,13.03
2017-11-04T17:35:12.964Z,11.60
2017-11-04T17:37:40.554Z,12.90
2017-11-04T17:40:08.131Z,13.80
2017-11-04T17:42:35.676Z,11.30
2017-11-04T17:45:03.243Z,13.40
2017-11-04T17:47:30.786Z,13.03
2017-11-04T17:49:58.351Z,11.70
2017-11-04T17:52:25.896Z,10.90
2017-11-04T17:54:53.464Z,11.20
2017-11-04T17:57:20.991Z,11.83
2017-11-04T17:59:48.557Z,11.37
2017-11-04T18:02:16.102Z,11.70
2017-11-04T18:04:43.684Z,11.20
2017-11-04T18:07:11.226Z,10.37
2017-11-04T18:09:38.787Z,11.77
2017-11-04T18:12:06.324Z,10.10
2017-11-04T18:14:34.659Z,10.50
2017-11-04T18:17:02.986Z,13.20
2017-11-04T18:19:31.302Z,9.70
2017-11-04T18:21:58.865Z,12.23
2017-11-04T18:24:26.414Z,12.00
2017-11-04T18:26:53.983Z,10.77
2017-11-04T18:29:21.535Z,11.90
2017-11-04T18:31:49.091Z,10.77
2017-11-04T18:34:16.628Z,12.07
2017-11-04T18:36:47.553Z,11.90
2017-11-04T18:39:15.850Z,13.33
2017-11-04T18:41:43.414Z,13.57
2017-11-04T18:44:10.960Z,12.57
2017-11-04T18:46:39.287Z,13.40
2017-11-04T18:49:06.827Z,13.47
2017-11-04T18:51:34.379Z,15.20
2017-11-04T18:54:01.915Z,13.77
2017-11-04T18:56:30.242Z,13.30
2017-11-04T18:58:57.768Z,13.80
2017-11-04T19:01:25.323Z,13.60
2017-11-04T19:03:53.625Z,12.43
2017-11-04T19:06:21.192Z,15.30
2017-11-04T19:08:48.720Z,13.60
2017-11-04T19:11:16.287Z,12.27
2017-11-04T19:13:43.835Z,13.10
2017-11-04T19:16:12.159Z,14.20
2017-11-04T19:18:39.708Z,14.43
2017-11-04T19:21:07.285Z,12.83
2017-11-04T19:23:36.343Z,13.47
2017-11-04T19:26:03.917Z,13.73
2017-11-04T19:28:31.463Z,12.77
2017-11-04T19:30:59.039Z,14.10
2017-11-04T19:33:26.592Z,12.57
2017-11-04T19:35:54.171Z,11.90
2017-11-04T19:38:21.707Z,12.80
2017-11-04T19:40:49.256Z,12.37
2017-11-04T19:43:16.823Z,12.67
2017-11-04T19:45:44.366Z,12.27
2017-11-04T19:48:12.694Z,12.57
2017-11-04T19:50:40.228Z,11.97
2017-11-04T19:53:07.800Z,12.17
2017-11-04T19:55:35.355Z,11.90
2017-11-04T19:58:02.935Z,11.30
2017-11-04T20:00:30.490Z,12.50
2017-11-04T20:02:58.039Z,13.47
2017-11-04T20:05:25.580Z,11.83
2017-11-04T20:07:53.139Z,13.57
2017-11-04T20:10:20.667Z,13.50
2017-11-04T20:12:48.991Z,13.17
2017-11-04T20:15:16.527Z,14.30
2017-11-04T20:17:44.082Z,15.10
2017-11-04T20:20:11.631Z,14.10
2017-11-04T20:22:39.949Z,13.63
2017-11-04T20:25:07.481Z,13.50
2017-11-04T20:27:35.043Z,14.67
2017-11-04T20:30:02.576Z,14.20
2017-11-04T20:32:30.164Z,13.80
2017-11-04T20:34:57.696Z,13.50
2017-11-04T20:37:25.271Z,13.97
2017-11-04T20:39:53.848Z,13.53
2017-11-04T20:42:21.515Z,13.80
2017-11-04T20:44:49.286Z,16.37
2017-11-04T20:47:16.833Z,14.40
2017-11-04T20:49:45.159Z,13.70
2017-11-04T20:52:12.698Z,13.57
2017-11-04T20:54:40.258Z,14.80
2017-11-04T20:57:07.786Z,14.10
2017-11-04T20:59:36.119Z,14.30
2017-11-04T21:02:03.649Z,12.57
2017-11-04T21:04:31.211Z,12.83
2017-11-04T21:06:58.750Z,15.27
2017-11-04T21:09:27.075Z,15.10
2017-11-04T21:11:54.602Z,15.30
2017-11-04T21:14:22.238Z,15.07
2017-11-04T21:16:49.771Z,16.80
2017-11-04T21:19:17.326Z,16.87
2017-11-04T21:21:44.867Z,14.80
2017-11-04T21:24:12.433Z,15.03
2017-11-04T21:26:39.965Z,16.43
2017-11-04T21:29:07.540Z,16.30
2017-11-04T21:31:35.079Z,15.60
2017-11-04T21:34:03.372Z,19.83
2017-11-04T21:36:30.926Z,17.07
2017-11-04T21:38:58.455Z,16.60
2017-11-04T21:41:26.794Z,18.30
2017-11-04T21:43:54.327Z,17.87
2017-11-04T21:46:21.889Z,17.00
2017-11-04T21:48:49.436Z,16.23
2017-11-04T21:51:17.007Z,16.63
2017-11-04T21:53:44.543Z,16.83
2017-11-04T21:56:12.874Z,17.57
2017-11-04T21:58:40.406Z,17.23
2017-11-04T22:01:07.985Z,15.50
2017-11-04T22:03:35.530Z,16.30
2017-11-04T22:06:03.122Z,16.63
2017-11-04T22:08:30.655Z,16.80
2017-11-04T22:10:58.222Z,16.93
2017-11-04T22:13:25.755Z,16.80
2017-11-04T22:15:53.308Z,17.70
2017-11-04T22:18:20.844Z,17.10
2017-11-04T22:20:49.180Z,17.10
2017-11-04T22:23:16.706Z,16.70
2017-11-04T22:25:44.302Z,16.60
2017-11-04T22:28:16.082Z,16.97
2017-11-04T22:51:44.160Z,19.60
2017-11-04T22:54:11.703Z,19.17
2017-11-04T22:56:39.271Z,19.67
2017-11-04T22:59:07.148Z,18.30
2017-11-04T23:01:34.703Z,18.10
2017-11-04T23:04:02.240Z,16.27
2017-11-04T23:06:30.643Z,17.33
2017-11-04T23:08:58.174Z,17.10
2017-11-04T23:11:26.499Z,14.33
2017-11-04T23:13:54.024Z,15.90
2017-11-04T23:16:21.583Z,15.17
2017-11-04T23:18:49.123Z,14.80
2017-11-04T23:21:17.451Z,15.53
2017-11-04T23:23:44.986Z,15.27
2017-11-04T23:26:12.539Z,15.13
2017-11-04T23:28:40.075Z,15.70
2017-11-04T23:31:08.412Z,15.00
2017-11-04T23:36:29.958Z,14.93
2017-11-04T23:38:57.501Z,15.67
2017-11-04T23:41:25.119Z,13.33
2017-11-04T23:43:53.424Z,14.03
2017-11-04T23:46:20.978Z,14.77
2017-11-04T23:48:48.511Z,14.27
2017-11-04T23:51:16.071Z,14.33
2017-11-04T23:53:43.611Z,14.83
2017-11-04T23:56:11.178Z,16.07
2017-11-04T23:58:38.712Z,15.27
